Time;durP1;ratioP1;P1;durP2;ratioP2;P2;SDS_P1;SDS_P2;PMS_P1;PMS_P2;Temp;Humidity;BMP_temperature;BMP_pressure;BME280_temperature;BME280_humidity;BME280_pressure;Samples;Min_cycle;Max_cycle;Signal;HPM_P1;HPM_P2
2023/07/24 00:01:11;;;;;;;12.02;2.95;;;23.10;1.00;;;;;;4841917;29;20077;-49
2023/07/24 00:03:38;;;;;;;6.10;2.83;;;23.10;1.00;;;;;;4844747;29;20523;-46
2023/07/24 00:06:05;;;;;;;7.80;3.38;;;23.10;1.00;;;;;;4844270;29;20394;-48
2023/07/24 00:08:32;;;;;;;5.55;2.58;;;23.10;1.00;;;;;;4839068;29;20053;-46
2023/07/24 00:11:00;;;;;;;7.43;2.88;;;23.10;1.00;;;;;;4842616;29;20045;-49
2023/07/24 00:13:26;;;;;;;4.35;2.58;;;23.10;1.00;;;;;;4844777;29;20090;-51
2023/07/24 00:15:53;;;;;;;6.95;2.30;;;23.10;1.00;;;;;;4844486;29;20049;-51
2023/07/24 00:18:20;;;;;;;8.07;3.20;;;23.10;1.00;;;;;;4844270;29;20060;-48
2023/07/24 00:20:47;;;;;;;8.45;3.00;;;23.10;1.00;;;;;;4843224;29;20044;-46
2023/07/24 00:23:14;;;;;;;5.95;2.50;;;23.10;1.00;;;;;;4844802;29;20052;-50
2023/07/24 00:25:41;;;;;;;8.43;3.03;;;23.10;1.00;;;;;;4844282;29;20104;-48
2023/07/24 00:28:08;;;;;;;7.45;2.72;;;23.00;1.00;;;;;;4844072;29;20042;-49
2023/07/24 00:30:37;;;;;;;8.45;3.00;;;23.10;1.00;;;;;;4838460;29;20099;-48
2023/07/24 00:33:04;;;;;;;6.38;2.83;;;23.00;1.00;;;;;;4842696;29;20054;-50
2023/07/24 00:35:31;;;;;;;4.97;2.70;;;23.00;1.00;;;;;;4843179;29;20083;-44
2023/07/24 00:37:58;;;;;;;7.70;2.88;;;23.00;1.00;;;;;;4843905;29;20404;-48
2023/07/24 00:40:25;;;;;;;6.60;2.08;;;23.00;1.00;;;;;;4846534;29;20120;-51
2023/07/24 00:42:52;;;;;;;5.43;2.70;;;23.00;1.00;;;;;;4840868;29;20049;-47
2023/07/24 00:45:20;;;;;;;7.05;2.67;;;23.00;1.00;;;;;;4858241;29;20504;-49
2023/07/24 00:47:47;;;;;;;8.15;2.40;;;23.00;1.00;;;;;;4842789;29;20501;-49
2023/07/24 00:50:15;;;;;;;7.18;3.13;;;23.00;1.00;;;;;;4843887;29;20042;-51
2023/07/24 00:52:42;;;;;;;6.80;2.92;;;23.00;1.00;;;;;;4843906;29;20090;-51
2023/07/24 00:55:12;;;;;;;5.60;2.30;;;23.00;1.00;;;;;;4843736;29;20042;-48
2023/07/24 00:57:41;;;;;;;6.35;2.90;;;23.00;1.00;;;;;;4843853;29;20042;-51
2023/07/24 01:00:08;;;;;;;7.20;2.90;;;23.00;1.00;;;;;;4857907;29;20054;-44
2023/07/24 01:02:36;;;;;;;10.00;2.90;;;23.00;1.00;;;;;;4837451;29;20046;-51
2023/07/24 01:05:03;;;;;;;8.52;3.38;;;23.00;1.00;;;;;;4844530;29;20057;-44
2023/07/24 01:07:30;;;;;;;8.25;2.67;;;23.00;1.00;;;;;;4847021;29;20049;-46
2023/07/24 01:09:57;;;;;;;5.57;2.63;;;23.00;1.00;;;;;;4846172;29;20042;-44
2023/07/24 01:13:00;;;;;;;7.97;3.22;;;23.00;1.00;;;;;;4844316;29;20493;-45
2023/07/24 01:15:34;;;;;;;6.65;2.65;;;23.00;1.00;;;;;;4837439;29;20353;-44
2023/07/24 01:18:08;;;;;;;5.88;2.72;;;23.00;1.00;;;;;;4856657;29;20042;-44
2023/07/24 01:20:43;;;;;;;5.53;2.75;;;22.90;1.00;;;;;;4830160;29;20061;-44
2023/07/24 01:23:15;;;;;;;4.90;2.13;;;22.90;1.00;;;;;;4857533;29;20103;-43
2023/07/24 01:25:56;;;;;;;3.55;2.22;;;22.90;1.00;;;;;;4843108;29;20052;-44
2023/07/24 01:28:23;;;;;;;6.95;2.72;;;22.90;1.00;;;;;;4842107;29;20520;-50
2023/07/24 01:30:49;;;;;;;7.20;3.10;;;22.90;1.00;;;;;;4843251;29;20107;-45
2023/07/24 01:33:17;;;;;;;8.65;2.63;;;22.90;1.00;;;;;;4843452;29;20048;-47
2023/07/24 01:35:50;;;;;;;4.85;2.15;;;22.90;1.00;;;;;;4843075;29;20049;-43
2023/07/24 01:38:17;;;;;;;7.72;2.63;;;22.90;1.00;;;;;;4849420;29;20068;-46
2023/07/24 01:40:44;;;;;;;5.38;2.65;;;22.90;1.00;;;;;;4841874;29;20505;-46
2023/07/24 01:43:11;;;;;;;6.10;2.50;;;22.90;1.00;;;;;;4841621;29;20056;-44
2023/07/24 01:45:38;;;;;;;6.22;2.50;;;22.90;1.00;;;;;;4857043;29;20057;-44
2023/07/24 01:48:06;;;;;;;9.80;2.17;;;22.90;1.00;;;;;;4841461;29;20144;-48
2023/07/24 01:50:33;;;;;;;6.93;3.15;;;22.90;1.00;;;;;;4842814;29;20038;-44
2023/07/24 01:52:59;;;;;;;8.38;2.75;;;22.90;1.00;;;;;;4841590;29;20099;-44
2023/07/24 01:55:26;;;;;;;7.03;3.25;;;22.90;1.00;;;;;;4842655;29;20045;-49
2023/07/24 01:57:53;;;;;;;7.55;2.53;;;22.90;1.00;;;;;;4841344;29;20275;-51
2023/07/24 02:00:20;;;;;;;6.82;2.65;;;22.90;1.00;;;;;;4841378;29;20049;-45
2023/07/24 02:02:56;;;;;;;8.18;3.28;;;22.90;1.00;;;;;;4841706;29;20073;-44
2023/07/24 02:05:23;;;;;;;7.38;2.90;;;22.80;1.00;;;;;;4833843;29;20042;-50
2023/07/24 02:07:50;;;;;;;5.50;3.05;;;22.80;1.00;;;;;;4834772;29;20065;-44
2023/07/24 02:10:17;;;;;;;6.65;2.15;;;22.80;1.00;;;;;;4833044;29;20568;-47
2023/07/24 02:12:45;;;;;;;5.00;2.65;;;22.80;1.00;;;;;;4838228;29;20073;-47
2023/07/24 02:15:12;;;;;;;6.05;2.50;;;22.80;1.00;;;;;;4839276;29;20489;-44
2023/07/24 02:17:39;;;;;;;5.22;2.70;;;22.80;1.00;;;;;;4840916;29;20046;-44
2023/07/24 02:20:07;;;;;;;9.60;2.63;;;22.80;1.00;;;;;;4841051;29;20053;-46
2023/07/24 02:22:35;;;;;;;8.10;2.42;;;22.80;1.00;;;;;;4856720;29;20106;-46
2023/07/24 02:25:05;;;;;;;6.70;2.28;;;22.80;1.00;;;;;;4841533;29;20060;-44
2023/07/24 02:27:34;;;;;;;4.63;1.95;;;22.80;1.00;;;;;;4844849;29;20053;-44
2023/07/24 02:30:02;;;;;;;7.07;3.13;;;22.80;1.00;;;;;;4838984;29;20041;-45
2023/07/24 02:32:29;;;;;;;6.07;2.30;;;22.80;1.00;;;;;;4841048;29;20106;-43
2023/07/24 02:34:56;;;;;;;8.90;3.53;;;22.80;1.00;;;;;;4840811;29;20060;-44
2023/07/24 02:37:23;;;;;;;4.70;3.22;;;22.80;1.00;;;;;;4841803;29;20042;-44
2023/07/24 02:39:51;;;;;;;8.55;2.45;;;22.80;1.00;;;;;;4842102;29;20080;-46
2023/07/24 02:42:19;;;;;;;4.45;2.30;;;22.80;1.00;;;;;;4838481;29;20058;-44
2023/07/24 02:44:46;;;;;;;7.85;2.17;;;22.80;1.00;;;;;;4836552;29;20113;-44
2023/07/24 02:47:13;;;;;;;7.53;2.97;;;22.80;1.00;;;;;;4840355;29;20074;-46
2023/07/24 02:49:40;;;;;;;6.88;2.60;;;22.80;1.00;;;;;;4841942;29;20120;-46
2023/07/24 02:52:07;;;;;;;6.07;2.05;;;22.80;1.00;;;;;;4840530;29;20148;-46
2023/07/24 02:54:33;;;;;;;9.45;2.65;;;22.80;1.00;;;;;;4855924;29;20137;-44
2023/07/24 02:57:00;;;;;;;6.40;3.15;;;22.80;1.00;;;;;;4841556;29;20093;-44
2023/07/24 02:59:28;;;;;;;6.68;1.98;;;22.80;1.00;;;;;;4840377;29;20139;-45
2023/07/24 03:01:55;;;;;;;6.65;2.47;;;22.80;1.00;;;;;;4840513;29;20052;-45
2023/07/24 03:04:23;;;;;;;7.68;2.55;;;22.80;1.00;;;;;;4839564;29;20081;-44
2023/07/24 03:06:50;;;;;;;6.65;2.85;;;22.80;1.00;;;;;;4827401;29;20072;-45
2023/07/24 03:09:17;;;;;;;6.75;2.42;;;22.80;1.00;;;;;;4841595;29;20121;-44
2023/07/24 03:11:44;;;;;;;5.82;3.33;;;22.80;1.00;;;;;;4841610;29;20037;-45
2023/07/24 03:14:10;;;;;;;7.95;2.80;;;22.80;1.00;;;;;;4841434;29;20073;-45
2023/07/24 03:16:37;;;;;;;9.32;2.97;;;22.80;1.00;;;;;;4840291;29;20050;-44
2023/07/24 03:19:04;;;;;;;7.93;2.53;;;22.80;1.00;;;;;;4841300;29;20120;-45
2023/07/24 03:21:31;;;;;;;5.80;1.92;;;22.70;1.00;;;;;;4841512;29;20403;-44
2023/07/24 03:23:58;;;;;;;8.50;3.05;;;22.70;1.00;;;;;;4840225;29;20046;-45
2023/07/24 03:26:25;;;;;;;7.13;2.88;;;22.70;1.00;;;;;;4838878;29;20104;-44
2023/07/24 03:28:52;;;;;;;7.75;2.45;;;22.70;1.00;;;;;;4828634;29;20038;-44
2023/07/24 03:31:19;;;;;;;5.47;2.10;;;22.70;1.00;;;;;;4840120;29;20074;-44
2023/07/24 03:33:46;;;;;;;8.60;2.40;;;22.70;1.00;;;;;;4840146;29;20081;-44
2023/07/24 03:36:13;;;;;;;7.43;2.58;;;22.70;1.00;;;;;;4840709;29;20054;-44
2023/07/24 03:38:41;;;;;;;6.85;1.95;;;22.70;1.00;;;;;;4843909;29;20052;-44
2023/07/24 03:41:08;;;;;;;8.05;2.65;;;22.70;1.00;;;;;;4843844;29;20058;-44
2023/07/24 03:43:34;;;;;;;5.07;2.00;;;22.70;1.00;;;;;;4843889;29;20086;-45
2023/07/24 03:46:01;;;;;;;7.60;2.20;;;22.70;1.00;;;;;;4843896;29;20049;-47
2023/07/24 03:48:28;;;;;;;7.55;2.20;;;22.70;1.00;;;;;;4844829;29;20038;-44
2023/07/24 03:51:02;;;;;;;7.40;2.92;;;22.70;1.00;;;;;;4844929;29;20115;-44
2023/07/24 03:53:29;;;;;;;6.00;1.73;;;22.70;1.00;;;;;;4843218;29;20049;-45
2023/07/24 03:55:58;;;;;;;4.30;2.33;;;22.70;1.00;;;;;;4847473;29;20073;-44
2023/07/24 03:58:25;;;;;;;7.72;2.45;;;22.70;1.00;;;;;;4848195;29;20097;-45
2023/07/24 04:00:52;;;;;;;9.50;3.22;;;22.70;1.00;;;;;;4849498;29;20066;-47
2023/07/24 04:03:19;;;;;;;9.10;2.92;;;22.70;1.00;;;;;;4848478;29;20436;-44
2023/07/24 04:05:46;;;;;;;9.10;2.58;;;22.70;1.00;;;;;;4844707;29;20042;-44
2023/07/24 04:08:12;;;;;;;8.52;2.17;;;22.70;1.00;;;;;;4839579;29;20047;-44
2023/07/24 04:10:39;;;;;;;12.60;2.85;;;22.70;1.00;;;;;;4824664;29;20041;-44
2023/07/24 04:13:06;;;;;;;9.48;2.83;;;22.70;1.00;;;;;;4829913;29;20511;-44
2023/07/24 04:15:33;;;;;;;12.10;3.10;;;22.70;1.00;;;;;;4825399;29;20051;-44
2023/07/24 04:18:00;;;;;;;9.48;2.58;;;22.60;1.00;;;;;;4821256;29;20050;-43
2023/07/24 04:20:27;;;;;;;9.85;3.13;;;22.60;1.00;;;;;;4835472;29;20042;-44
2023/07/24 04:22:54;;;;;;;12.32;3.42;;;22.60;1.00;;;;;;4835748;29;20046;-45
2023/07/24 04:25:21;;;;;;;22.98;4.43;;;22.60;1.00;;;;;;4834474;29;20056;-43
2023/07/24 04:27:48;;;;;;;9.73;2.97;;;22.60;1.00;;;;;;4844028;29;20057;-44
2023/07/24 04:30:15;;;;;;;14.73;2.78;;;22.60;1.00;;;;;;4828022;29;20053;-44
2023/07/24 04:32:42;;;;;;;11.27;3.00;;;22.60;1.00;;;;;;4835942;29;20038;-46
2023/07/24 04:35:09;;;;;;;8.63;3.15;;;22.60;1.00;;;;;;4842381;29;20129;-44
2023/07/24 04:37:36;;;;;;;13.75;4.10;;;22.60;1.00;;;;;;4843303;29;20038;-43
2023/07/24 04:40:03;;;;;;;7.05;2.70;;;22.60;1.00;;;;;;4843003;29;20401;-49
2023/07/24 04:42:30;;;;;;;13.80;3.15;;;22.60;1.00;;;;;;4842552;29;20053;-44
2023/07/24 04:44:57;;;;;;;10.63;3.15;;;22.60;1.00;;;;;;4842672;29;20065;-46
2023/07/24 04:47:24;;;;;;;10.60;3.65;;;22.60;1.00;;;;;;4842357;29;20053;-46
2023/07/24 04:49:51;;;;;;;8.32;2.55;;;22.60;1.00;;;;;;4842561;29;20045;-45
2023/07/24 04:52:17;;;;;;;10.15;2.72;;;22.50;1.00;;;;;;4842688;29;20037;-43
2023/07/24 04:54:44;;;;;;;5.25;3.30;;;22.60;1.00;;;;;;4843580;29;20073;-47
2023/07/24 04:57:11;;;;;;;19.33;2.92;;;22.60;1.00;;;;;;4843125;29;20052;-44
2023/07/24 04:59:38;;;;;;;8.90;3.03;;;22.60;1.00;;;;;;4832963;29;20527;-46
2023/07/24 05:02:05;;;;;;;9.63;3.17;;;22.50;1.00;;;;;;4838508;29;20057;-50
2023/07/24 05:04:32;;;;;;;7.05;2.72;;;22.50;1.00;;;;;;4822900;29;20382;-46
2023/07/24 05:06:59;;;;;;;7.82;2.42;;;22.50;1.00;;;;;;4821542;29;20034;-46
2023/07/24 05:09:26;;;;;;;9.82;3.45;;;22.50;1.00;;;;;;4825473;29;20077;-43
2023/07/24 05:11:53;;;;;;;8.98;2.63;;;22.50;1.00;;;;;;4843357;29;20119;-44
2023/07/24 05:14:19;;;;;;;8.48;2.72;;;22.50;1.00;;;;;;4842976;29;20124;-44
2023/07/24 05:16:46;;;;;;;12.15;2.58;;;22.50;1.00;;;;;;4843141;29;20042;-49
2023/07/24 05:19:13;;;;;;;6.50;2.42;;;22.50;1.00;;;;;;4843051;29;20078;-48
2023/07/24 05:21:40;;;;;;;6.75;2.25;;;22.50;1.00;;;;;;4843113;29;20068;-47
2023/07/24 05:24:07;;;;;;;5.85;2.80;;;22.50;1.00;;;;;;4842989;29;20098;-45
2023/07/24 05:26:33;;;;;;;11.23;2.70;;;22.50;1.00;;;;;;4842845;29;20505;-46
2023/07/24 05:29:00;;;;;;;8.25;2.83;;;22.50;1.00;;;;;;4842756;29;20042;-48
2023/07/24 05:31:27;;;;;;;5.00;2.35;;;22.50;1.00;;;;;;4842954;29;20482;-48
2023/07/24 05:33:54;;;;;;;6.93;2.25;;;22.50;1.00;;;;;;4842891;29;20038;-48
2023/07/24 05:36:21;;;;;;;7.43;2.30;;;22.50;1.00;;;;;;4842705;29;20407;-46
2023/07/24 05:38:48;;;;;;;10.23;2.70;;;22.50;1.00;;;;;;4827783;29;20044;-46
2023/07/24 05:41:17;;;;;;;7.40;2.53;;;22.50;1.00;;;;;;4843140;29;20390;-44
2023/07/24 05:43:45;;;;;;;7.00;2.33;;;22.50;1.00;;;;;;4842673;29;20050;-44
2023/07/24 05:46:12;;;;;;;10.27;2.80;;;22.50;1.00;;;;;;4842622;29;20558;-44
2023/07/24 05:48:39;;;;;;;6.78;1.73;;;22.50;1.00;;;;;;4842196;29;20056;-45
2023/07/24 05:51:06;;;;;;;7.50;3.15;;;22.50;1.00;;;;;;4842587;29;20042;-48
2023/07/24 05:53:33;;;;;;;4.93;2.10;;;22.50;1.00;;;;;;4842445;29;20102;-46
2023/07/24 05:56:01;;;;;;;6.35;2.53;;;22.50;1.00;;;;;;4842459;29;20041;-46
2023/07/24 05:58:28;;;;;;;7.88;2.30;;;22.50;1.00;;;;;;4841733;29;20050;-51
2023/07/24 06:00:55;;;;;;;5.80;2.53;;;22.50;1.00;;;;;;4842248;29;20046;-50
2023/07/24 06:03:23;;;;;;;7.97;2.05;;;22.50;1.00;;;;;;4841087;29;20047;-47
2023/07/24 06:05:52;;;;;;;10.38;2.22;;;22.50;1.00;;;;;;4842396;29;20049;-44
2023/07/24 06:08:20;;;;;;;7.45;2.42;;;22.50;1.00;;;;;;4834859;29;20503;-44
2023/07/24 06:10:49;;;;;;;7.57;2.53;;;22.50;1.00;;;;;;4834696;29;20519;-43
2023/07/24 06:13:17;;;;;;;5.45;2.28;;;22.50;1.00;;;;;;4842310;29;20037;-44
2023/07/24 06:15:44;;;;;;;5.20;1.83;;;22.50;1.00;;;;;;4842590;29;20056;-45
2023/07/24 06:18:11;;;;;;;7.05;2.42;;;22.50;1.00;;;;;;4840624;29;20133;-45
2023/07/24 06:20:37;;;;;;;6.18;2.03;;;22.50;1.00;;;;;;4842176;29;20084;-44
2023/07/24 06:23:04;;;;;;;5.07;1.70;;;22.50;1.00;;;;;;4842087;29;20049;-46
2023/07/24 06:25:32;;;;;;;3.45;2.00;;;22.50;1.00;;;;;;4841758;29;20141;-45
2023/07/24 06:27:59;;;;;;;4.13;1.70;;;22.50;1.00;;;;;;4841581;29;20042;-45
2023/07/24 06:30:26;;;;;;;7.95;2.72;;;22.50;1.00;;;;;;4842059;29;20042;-47
2023/07/24 06:32:53;;;;;;;6.57;2.08;;;22.50;1.00;;;;;;4841839;29;20038;-47
2023/07/24 06:35:19;;;;;;;5.70;2.00;;;22.50;1.00;;;;;;4841768;29;20049;-47
2023/07/24 06:37:46;;;;;;;3.22;1.70;;;22.50;1.00;;;;;;4841386;29;20046;-46
2023/07/24 06:40:13;;;;;;;4.20;2.42;;;22.60;1.00;;;;;;4841921;29;20130;-48
2023/07/24 06:42:40;;;;;;;4.30;1.70;;;22.50;1.00;;;;;;4841662;29;20053;-48
2023/07/24 06:45:09;;;;;;;6.22;2.78;;;22.60;1.00;;;;;;4841789;29;20068;-44
2023/07/24 06:47:36;;;;;;;4.80;2.03;;;22.60;1.00;;;;;;4841665;29;20050;-48
2023/07/24 06:50:04;;;;;;;2.67;1.42;;;22.60;1.00;;;;;;4841923;29;20046;-47
2023/07/24 06:52:32;;;;;;;6.28;2.30;;;22.60;1.00;;;;;;4841518;29;20555;-49
2023/07/24 06:55:00;;;;;;;4.80;1.80;;;22.60;1.00;;;;;;4841495;29;20065;-50
2023/07/24 06:57:27;;;;;;;5.80;1.67;;;22.60;1.00;;;;;;4841309;29;20050;-47
2023/07/24 06:59:54;;;;;;;3.95;1.92;;;22.60;1.00;;;;;;4841638;29;20121;-50
2023/07/24 07:02:21;;;;;;;3.63;1.90;;;22.60;1.00;;;;;;4841370;29;20050;-48
2023/07/24 07:04:48;;;;;;;8.82;2.00;;;22.60;1.00;;;;;;4843456;24;20237;-44
2023/07/24 07:07:15;;;;;;;2.22;1.52;;;22.60;1.00;;;;;;4836412;29;20050;-47
2023/07/24 07:09:42;;;;;;;3.20;1.70;;;22.60;1.00;;;;;;4841297;29;20453;-46
2023/07/24 07:12:09;;;;;;;4.38;1.88;;;22.60;1.00;;;;;;4841355;29;20102;-49
2023/07/24 07:14:36;;;;;;;3.33;1.65;;;22.60;1.00;;;;;;4841090;29;20066;-46
2023/07/24 07:17:03;;;;;;;2.72;1.73;;;22.60;1.00;;;;;;4840771;29;20038;-50
2023/07/24 07:19:30;;;;;;;3.47;2.55;;;22.60;1.00;;;;;;4835009;23;20061;-44
2023/07/24 07:21:56;;;;;;;5.50;1.85;;;22.60;1.00;;;;;;4823254;29;20322;-43
2023/07/24 07:24:23;;;;;;;3.30;1.73;;;22.60;1.00;;;;;;4823071;29;20061;-43
2023/07/24 07:26:50;;;;;;;5.03;1.95;;;22.60;1.00;;;;;;4822789;29;20047;-44
2023/07/24 07:29:17;;;;;;;3.70;1.52;;;22.60;1.00;;;;;;4815292;29;20126;-46
2023/07/24 07:31:44;;;;;;;2.92;1.30;;;22.60;1.00;;;;;;4822939;29;20038;-44
2023/07/24 07:34:11;;;;;;;4.28;1.73;;;22.60;1.00;;;;;;4822922;29;20066;-43
2023/07/24 07:36:37;;;;;;;3.35;1.50;;;22.60;1.00;;;;;;4821849;29;20513;-44
2023/07/24 07:39:04;;;;;;;2.97;1.55;;;22.60;1.00;;;;;;4816611;29;20080;-43
2023/07/24 07:41:31;;;;;;;2.35;1.92;;;22.60;1.00;;;;;;4822892;29;20085;-44
2023/07/24 07:43:58;;;;;;;2.85;1.55;;;22.60;1.00;;;;;;4823052;29;20042;-44
2023/07/24 07:46:25;;;;;;;3.25;1.50;;;22.60;1.00;;;;;;4822834;29;20122;-43
2023/07/24 07:48:52;;;;;;;3.53;1.55;;;22.70;1.00;;;;;;4822350;29;20109;-45
2023/07/24 07:51:19;;;;;;;2.35;1.55;;;22.70;1.00;;;;;;4822805;29;20413;-42
2023/07/24 07:53:46;;;;;;;3.35;1.85;;;22.70;1.00;;;;;;4822412;29;20125;-50
2023/07/24 07:56:13;;;;;;;3.75;1.70;;;22.70;1.00;;;;;;4822968;29;20061;-44
2023/07/24 07:58:40;;;;;;;2.35;1.30;;;22.70;1.00;;;;;;4814874;29;20428;-46
2023/07/24 08:01:07;;;;;;;3.70;2.28;;;22.70;1.00;;;;;;4822771;29;20054;-45
2023/07/24 08:03:34;;;;;;;3.05;1.67;;;22.70;1.00;;;;;;4822571;29;20054;-44
2023/07/24 08:06:01;;;;;;;2.22;1.48;;;22.70;1.00;;;;;;4822469;29;20394;-47
2023/07/24 08:08:28;;;;;;;1.85;1.40;;;22.70;1.00;;;;;;4822323;29;20046;-44
2023/07/24 08:10:55;;;;;;;2.95;1.30;;;22.70;1.00;;;;;;4822636;29;20117;-45
2023/07/24 08:13:22;;;;;;;3.78;2.20;;;22.70;1.00;;;;;;4822539;29;20519;-45
2023/07/24 08:15:49;;;;;;;2.65;1.40;;;22.70;1.00;;;;;;4822485;29;20070;-44
2023/07/24 08:18:16;;;;;;;2.97;1.35;;;22.70;1.00;;;;;;4822242;29;20061;-44
2023/07/24 08:20:43;;;;;;;2.70;1.52;;;22.70;1.00;;;;;;4822706;29;20055;-47
2023/07/24 08:23:10;;;;;;;2.38;1.50;;;22.70;1.00;;;;;;4824411;29;20097;-45
2023/07/24 08:25:37;;;;;;;2.67;1.40;;;22.70;1.00;;;;;;4825650;29;20107;-46
2023/07/24 08:28:04;;;;;;;3.10;1.35;;;22.70;1.00;;;;;;4825337;29;20046;-43
2023/07/24 08:30:34;;;;;;;3.05;1.50;;;22.70;1.00;;;;;;4825620;29;20051;-45
2023/07/24 08:33:01;;;;;;;2.30;1.45;;;22.70;1.00;;;;;;4825646;29;20081;-44
2023/07/24 08:35:27;;;;;;;3.05;1.70;;;22.70;1.00;;;;;;4825677;29;20050;-48
2023/07/24 08:37:54;;;;;;;2.45;1.58;;;22.80;1.00;;;;;;4825159;29;20467;-44
2023/07/24 08:40:21;;;;;;;3.50;1.40;;;22.80;1.00;;;;;;4825529;29;20145;-47
2023/07/24 08:42:50;;;;;;;2.33;1.55;;;22.80;1.00;;;;;;4825429;29;20157;-46
2023/07/24 08:45:17;;;;;;;3.92;1.42;;;22.80;1.00;;;;;;4825213;29;20053;-44
2023/07/24 08:47:45;;;;;;;2.40;1.10;;;22.80;1.00;;;;;;4825018;29;20229;-43
2023/07/24 08:50:14;;;;;;;2.33;1.35;;;22.80;1.00;;;;;;4825270;29;20038;-43
2023/07/24 08:52:43;;;;;;;3.85;1.80;;;22.80;1.00;;;;;;4825007;29;20125;-43
2023/07/24 08:55:10;;;;;;;3.42;1.45;;;22.80;1.00;;;;;;4821161;29;20474;-43
2023/07/24 08:57:37;;;;;;;2.25;1.52;;;22.90;1.00;;;;;;4821726;29;20050;-44
2023/07/24 09:00:05;;;;;;;1.80;1.08;;;22.90;1.00;;;;;;4825120;29;20064;-44
2023/07/24 09:02:35;;;;;;;1.58;1.33;;;22.90;1.00;;;;;;4824989;29;20458;-43
2023/07/24 09:05:03;;;;;;;3.15;1.38;;;22.90;1.00;;;;;;4825058;29;20134;-46
2023/07/24 09:07:31;;;;;;;1.88;1.40;;;23.00;1.00;;;;;;4817090;29;20245;-43
2023/07/24 09:09:58;;;;;;;3.28;1.45;;;23.00;1.00;;;;;;4815099;29;20043;-44
2023/07/24 09:12:25;;;;;;;2.78;2.20;;;23.00;1.00;;;;;;4819875;29;20130;-43
2023/07/24 09:15:04;;;;;;;2.38;1.48;;;23.00;1.00;;;;;;4817335;29;20512;-46
2023/07/24 09:17:33;;;;;;;2.03;1.35;;;23.00;1.00;;;;;;4824657;29;20038;-45
2023/07/24 09:20:01;;;;;;;2.88;1.73;;;23.00;1.00;;;;;;4817257;29;20046;-44
2023/07/24 09:22:28;;;;;;;2.88;1.85;;;23.00;1.00;;;;;;4824792;29;20046;-49
2023/07/24 09:24:57;;;;;;;2.85;1.83;;;23.00;1.00;;;;;;4824713;29;20412;-46
2023/07/24 09:27:28;;;;;;;2.42;1.50;;;23.10;1.00;;;;;;4824397;29;20058;-46
2023/07/24 09:29:58;;;;;;;2.67;1.73;;;23.10;1.00;;;;;;4824609;29;20050;-51
2023/07/24 09:32:29;;;;;;;2.97;1.52;;;23.10;1.00;;;;;;4824661;29;20046;-46
2023/07/24 09:34:55;;;;;;;2.10;1.38;;;23.10;1.00;;;;;;4823594;29;20062;-46
2023/07/24 09:37:33;;;;;;;2.33;1.73;;;23.10;1.00;;;;;;4838574;29;20443;-49
2023/07/24 09:40:04;;;;;;;3.50;1.70;;;23.10;1.00;;;;;;4817079;29;20050;-50
2023/07/24 09:42:36;;;;;;;4.93;1.95;;;23.10;1.00;;;;;;4824545;29;20143;-47
2023/07/24 09:45:19;;;;;;;2.25;1.67;;;23.10;1.00;;;;;;4824564;29;20118;-44
2023/07/24 09:47:50;;;;;;;3.53;1.48;;;23.10;1.00;;;;;;4823961;29;20095;-43
2023/07/24 09:50:24;;;;;;;3.55;1.88;;;23.10;1.00;;;;;;4824633;29;20058;-47
2023/07/24 09:52:52;;;;;;;2.63;1.48;;;23.10;1.00;;;;;;4824334;29;20042;-45
2023/07/24 09:55:30;;;;;;;3.53;1.35;;;23.10;1.00;;;;;;4824339;29;20038;-44
2023/07/24 09:57:58;;;;;;;2.22;1.70;;;23.10;1.00;;;;;;4823973;29;20055;-46
2023/07/24 10:00:26;;;;;;;2.90;2.17;;;23.10;1.00;;;;;;4816837;29;20073;-46
2023/07/24 10:02:53;;;;;;;2.28;1.27;;;23.10;1.00;;;;;;4816893;29;20137;-45
2023/07/24 10:05:20;;;;;;;1.90;1.27;;;23.10;1.00;;;;;;4824102;29;20055;-44
2023/07/24 10:07:48;;;;;;;2.17;1.60;;;23.10;1.00;;;;;;4823862;29;20051;-46
2023/07/24 10:10:15;;;;;;;1.67;1.20;;;23.10;1.00;;;;;;4824620;29;20066;-44
2023/07/24 10:12:42;;;;;;;3.88;1.50;;;23.10;1.00;;;;;;4824076;29;20493;-45
2023/07/24 10:15:10;;;;;;;3.25;1.27;;;23.10;1.00;;;;;;4824208;29;20126;-45
2023/07/24 10:17:38;;;;;;;1.88;0.98;;;23.10;1.00;;;;;;4823803;29;20087;-46
2023/07/24 10:20:07;;;;;;;2.13;1.38;;;23.10;1.00;;;;;;4824007;29;20046;-46
2023/07/24 10:22:35;;;;;;;1.92;1.30;;;23.10;1.00;;;;;;4823930;29;20071;-46
2023/07/24 10:25:02;;;;;;;2.70;1.17;;;23.10;1.00;;;;;;4823889;29;20126;-43
2023/07/24 10:27:29;;;;;;;1.42;1.20;;;23.10;1.00;;;;;;4823620;29;20042;-46
2023/07/24 10:30:04;;;;;;;1.63;1.15;;;23.10;1.00;;;;;;4823786;29;20045;-47
2023/07/24 10:32:50;;;;;;;2.45;1.60;;;23.10;1.00;;;;;;4823589;29;20080;-43
2023/07/24 10:35:22;;;;;;;2.60;1.23;;;23.20;1.00;;;;;;4823821;29;20050;-46
2023/07/24 10:38:00;;;;;;;1.98;1.20;;;23.10;1.00;;;;;;4823315;29;20197;-44
2023/07/24 10:40:27;;;;;;;2.10;1.00;;;23.10;1.00;;;;;;4823695;29;20042;-46
2023/07/24 10:43:03;;;;;;;1.13;0.90;;;23.10;1.00;;;;;;4823507;29;20478;-44
2023/07/24 10:45:53;;;;;;;2.20;1.02;;;23.10;1.00;;;;;;4823312;29;20042;-44
2023/07/24 10:48:25;;;;;;;1.35;0.85;;;23.10;1.00;;;;;;4823256;29;20114;-46
2023/07/24 10:50:52;;;;;;;1.27;0.60;;;23.10;1.00;;;;;;4823470;29;20042;-45
2023/07/24 10:53:22;;;;;;;1.90;1.00;;;23.20;1.00;;;;;;4823655;29;20047;-43
2023/07/24 10:55:51;;;;;;;1.77;0.73;;;23.10;1.00;;;;;;4823282;29;20501;-44
2023/07/24 10:58:18;;;;;;;1.50;0.85;;;23.20;1.00;;;;;;4823124;29;20121;-46
2023/07/24 11:00:46;;;;;;;3.65;0.82;;;23.10;1.00;;;;;;4823720;29;20550;-44
2023/07/24 11:03:14;;;;;;;2.28;1.02;;;23.20;1.00;;;;;;4823218;29;20042;-46
2023/07/24 11:05:46;;;;;;;2.30;1.20;;;23.20;1.00;;;;;;4823294;29;20493;-47
2023/07/24 11:08:15;;;;;;;2.28;0.88;;;23.20;1.00;;;;;;4822997;29;20051;-44
2023/07/24 11:10:49;;;;;;;1.67;0.90;;;23.20;1.00;;;;;;4823369;29;20108;-44
2023/07/24 11:13:24;;;;;;;2.03;1.10;;;23.20;1.00;;;;;;4823052;29;20099;-47
2023/07/24 11:15:53;;;;;;;3.47;0.80;;;23.20;1.00;;;;;;4823127;29;20504;-44
2023/07/24 11:18:22;;;;;;;1.85;0.77;;;23.20;1.00;;;;;;4822752;29;20042;-44
2023/07/24 11:20:51;;;;;;;1.88;1.02;;;23.20;1.00;;;;;;4823177;29;20070;-44
2023/07/24 11:23:19;;;;;;;2.35;1.02;;;23.20;1.00;;;;;;4823177;29;20084;-46
2023/07/24 11:25:46;;;;;;;3.40;1.65;;;23.20;1.00;;;;;;4822903;29;20060;-44
2023/07/24 11:28:14;;;;;;;1.55;0.80;;;23.20;1.00;;;;;;4822607;29;20046;-44
2023/07/24 11:30:43;;;;;;;1.42;0.82;;;23.20;1.00;;;;;;4822989;29;20046;-43
2023/07/24 11:33:12;;;;;;;1.20;0.57;;;23.20;1.00;;;;;;4822557;29;20446;-43
2023/07/24 11:35:42;;;;;;;2.38;0.50;;;23.20;1.00;;;;;;4823125;29;20061;-43
2023/07/24 11:38:10;;;;;;;3.05;0.90;;;23.20;1.00;;;;;;4822802;29;20069;-44
2023/07/24 11:40:39;;;;;;;1.45;0.80;;;23.20;1.00;;;;;;4823085;29;20043;-42
2023/07/24 11:43:21;;;;;;;2.33;1.05;;;23.20;1.00;;;;;;4822689;29;20078;-46
2023/07/24 11:45:53;;;;;;;4.70;1.13;;;23.20;1.00;;;;;;4822853;29;20043;-43
2023/07/24 11:48:23;;;;;;;2.42;0.70;;;23.20;1.00;;;;;;4822759;29;20049;-45
2023/07/24 11:50:54;;;;;;;2.25;0.77;;;23.20;1.00;;;;;;4822935;29;20038;-43
2023/07/24 11:53:26;;;;;;;1.30;0.73;;;23.20;1.00;;;;;;4822952;29;20039;-43
2023/07/24 11:55:58;;;;;;;3.97;1.07;;;23.20;1.00;;;;;;4822630;29;20087;-43
2023/07/24 11:58:26;;;;;;;2.67;1.02;;;23.20;1.00;;;;;;4817490;29;20474;-45
2023/07/24 12:00:54;;;;;;;1.38;0.93;;;23.20;1.00;;;;;;4826196;29;20080;-44
2023/07/24 12:03:24;;;;;;;1.95;0.65;;;23.20;1.00;;;;;;4826234;29;20401;-46
2023/07/24 12:05:52;;;;;;;1.42;0.70;;;23.20;1.00;;;;;;4826080;29;20510;-43
2023/07/24 12:08:31;;;;;;;2.65;1.10;;;23.20;1.00;;;;;;4825663;29;20052;-44
2023/07/24 12:10:58;;;;;;;3.17;0.52;;;23.20;1.00;;;;;;4825910;29;20042;-45
2023/07/24 12:13:25;;;;;;;3.53;0.90;;;23.20;1.00;;;;;;4825978;29;20070;-44
2023/07/24 12:15:52;;;;;;;2.60;1.38;;;23.20;1.00;;;;;;4825877;29;20042;-43
2023/07/24 12:18:19;;;;;;;4.40;0.98;;;23.20;1.00;;;;;;4824240;29;20049;-44
2023/07/24 12:20:47;;;;;;;2.03;0.90;;;23.20;1.00;;;;;;4825819;29;20133;-46
2023/07/24 12:23:13;;;;;;;2.88;0.88;;;23.20;1.00;;;;;;4825617;29;20042;-44
2023/07/24 12:25:40;;;;;;;2.13;0.77;;;23.20;1.00;;;;;;4825664;29;20045;-44
2023/07/24 12:28:07;;;;;;;2.50;0.82;;;23.20;1.00;;;;;;4825295;29;20118;-45
2023/07/24 12:30:34;;;;;;;2.08;0.82;;;23.20;1.00;;;;;;4825636;29;20126;-44
2023/07/24 12:33:01;;;;;;;1.20;0.77;;;23.20;1.00;;;;;;4825458;29;20048;-44
2023/07/24 12:35:28;;;;;;;1.10;0.63;;;23.20;1.00;;;;;;4825558;29;20039;-43
2023/07/24 12:37:54;;;;;;;1.70;0.80;;;23.20;1.00;;;;;;4825327;29;20449;-43
2023/07/24 12:40:21;;;;;;;2.22;0.70;;;23.20;1.00;;;;;;4825512;29;20144;-43
2023/07/24 12:42:48;;;;;;;1.92;0.65;;;23.20;1.00;;;;;;4825506;29;20409;-43
2023/07/24 12:45:15;;;;;;;3.20;0.90;;;23.20;1.00;;;;;;4825311;29;20537;-48
2023/07/24 12:47:42;;;;;;;1.02;0.50;;;23.20;1.00;;;;;;4817290;29;20074;-48
2023/07/24 12:50:09;;;;;;;1.20;0.68;;;23.20;1.00;;;;;;4825276;29;20099;-43
2023/07/24 12:52:36;;;;;;;1.17;0.68;;;23.20;1.00;;;;;;4825366;29;20046;-46
2023/07/24 12:55:04;;;;;;;1.70;0.77;;;23.20;1.00;;;;;;4825098;29;20039;-46
2023/07/24 12:57:31;;;;;;;4.32;0.80;;;23.20;1.00;;;;;;4825000;29;20038;-48
2023/07/24 12:59:57;;;;;;;1.40;0.65;;;23.20;1.00;;;;;;4825310;29;20520;-48